Metar z połowy godziny Komunikat METAR ze strony awiacja.imgw.pl Metar G30 EPGD METAR EPGD 241930Z 14006KT CAVOK 13/10 Q1010 =